Terminal Aerodrome Forecast
Issued by NWS Austin/San Antonio, TX

Home | Current Version | Previous Version | Text Only | Print | Product List | Glossary On
Versions: 1 2 3 4 5 6 7 8 9 10 11 12 13 14 15 16 17 18 19 20 21 22 23 24
000
FTUS44 KEWX 261741
TAFAUS
TAF
KAUS 261741Z 2618/2724 18014G24KT P6SM FEW040 SCT150
     FM270000 19012KT P6SM SCT050
     FM270600 19010KT P6SM OVC008
     FM271200 19005KT 5SM BR OVC004
     FM271500 21005KT P6SM OVC015
     FM271900 17008KT P6SM BKN040=

USA.gov is the U.S. government's official web portal to all federal, state and local government web resources and services.